sensor_id;sensor_type;location;lat;lon;timestamp;P1;durP1;ratioP1;P2;durP2;ratioP2
21810;SDS011;11067;48.788;9.208;2023-06-14T00:00:35;9.20;;;5.53;;
21810;SDS011;11067;48.788;9.208;2023-06-14T00:03:04;8.00;;;4.38;;
21810;SDS011;11067;48.788;9.208;2023-06-14T00:05:29;8.07;;;4.70;;
21810;SDS011;11067;48.788;9.208;2023-06-14T00:07:58;8.50;;;4.90;;
21810;SDS011;11067;48.788;9.208;2023-06-14T00:10:25;5.65;;;4.20;;
21810;SDS011;11067;48.788;9.208;2023-06-14T00:12:55;6.40;;;4.60;;
21810;SDS011;11067;48.788;9.208;2023-06-14T00:15:21;5.30;;;4.50;;
21810;SDS011;11067;48.788;9.208;2023-06-14T00:17:48;8.70;;;5.00;;
21810;SDS011;11067;48.788;9.208;2023-06-14T00:20:14;7.43;;;4.57;;
21810;SDS011;11067;48.788;9.208;2023-06-14T00:22:39;8.52;;;4.57;;
21810;SDS011;11067;48.788;9.208;2023-06-14T00:25:05;7.27;;;4.13;;
21810;SDS011;11067;48.788;9.208;2023-06-14T00:27:31;5.90;;;4.63;;
21810;SDS011;11067;48.788;9.208;2023-06-14T00:30:03;6.75;;;4.30;;
21810;SDS011;11067;48.788;9.208;2023-06-14T00:32:29;7.13;;;4.60;;
21810;SDS011;11067;48.788;9.208;2023-06-14T00:34:54;7.05;;;4.70;;
21810;SDS011;11067;48.788;9.208;2023-06-14T00:37:20;9.43;;;5.13;;
21810;SDS011;11067;48.788;9.208;2023-06-14T00:39:46;6.18;;;4.72;;
21810;SDS011;11067;48.788;9.208;2023-06-14T00:42:22;7.00;;;4.20;;
21810;SDS011;11067;48.788;9.208;2023-06-14T00:44:51;7.97;;;4.70;;
21810;SDS011;11067;48.788;9.208;2023-06-14T00:47:17;6.80;;;4.30;;
21810;SDS011;11067;48.788;9.208;2023-06-14T00:49:44;6.07;;;4.40;;
21810;SDS011;11067;48.788;9.208;2023-06-14T00:52:11;7.63;;;4.78;;
21810;SDS011;11067;48.788;9.208;2023-06-14T00:54:39;10.48;;;4.40;;
21810;SDS011;11067;48.788;9.208;2023-06-14T00:57:05;8.07;;;4.20;;
21810;SDS011;11067;48.788;9.208;2023-06-14T00:59:32;7.53;;;4.50;;
21810;SDS011;11067;48.788;9.208;2023-06-14T01:01:58;6.18;;;4.75;;
21810;SDS011;11067;48.788;9.208;2023-06-14T01:04:23;6.40;;;4.67;;
21810;SDS011;11067;48.788;9.208;2023-06-14T01:06:53;6.23;;;4.60;;
21810;SDS011;11067;48.788;9.208;2023-06-14T01:12:50;8.15;;;4.28;;
21810;SDS011;11067;48.788;9.208;2023-06-14T01:15:24;9.10;;;4.55;;
21810;SDS011;11067;48.788;9.208;2023-06-14T01:17:52;5.60;;;4.67;;
21810;SDS011;11067;48.788;9.208;2023-06-14T01:20:19;8.65;;;4.78;;
21810;SDS011;11067;48.788;9.208;2023-06-14T01:22:52;6.32;;;4.30;;
21810;SDS011;11067;48.788;9.208;2023-06-14T01:25:19;5.93;;;4.38;;
21810;SDS011;11067;48.788;9.208;2023-06-14T01:27:46;7.65;;;4.47;;
21810;SDS011;11067;48.788;9.208;2023-06-14T01:30:14;6.45;;;4.53;;
21810;SDS011;11067;48.788;9.208;2023-06-14T01:32:41;5.87;;;4.33;;
21810;SDS011;11067;48.788;9.208;2023-06-14T01:35:07;6.77;;;4.60;;
21810;SDS011;11067;48.788;9.208;2023-06-14T01:37:32;7.32;;;4.75;;
21810;SDS011;11067;48.788;9.208;2023-06-14T01:39:59;6.10;;;4.63;;
21810;SDS011;11067;48.788;9.208;2023-06-14T01:42:24;7.70;;;4.80;;
21810;SDS011;11067;48.788;9.208;2023-06-14T01:44:51;6.45;;;4.50;;
21810;SDS011;11067;48.788;9.208;2023-06-14T01:47:18;6.53;;;4.53;;
21810;SDS011;11067;48.788;9.208;2023-06-14T01:49:45;7.47;;;4.50;;
21810;SDS011;11067;48.788;9.208;2023-06-14T01:52:11;8.57;;;4.55;;
21810;SDS011;11067;48.788;9.208;2023-06-14T01:54:37;9.30;;;4.60;;
21810;SDS011;11067;48.788;9.208;2023-06-14T01:57:07;6.32;;;4.72;;
21810;SDS011;11067;48.788;9.208;2023-06-14T01:59:33;6.60;;;4.60;;
21810;SDS011;11067;48.788;9.208;2023-06-14T02:02:00;5.90;;;4.45;;
21810;SDS011;11067;48.788;9.208;2023-06-14T02:04:27;6.85;;;4.82;;
21810;SDS011;11067;48.788;9.208;2023-06-14T02:06:53;7.63;;;5.13;;
21810;SDS011;11067;48.788;9.208;2023-06-14T02:09:18;5.93;;;4.38;;
21810;SDS011;11067;48.788;9.208;2023-06-14T02:11:44;7.60;;;4.73;;
21810;SDS011;11067;48.788;9.208;2023-06-14T02:14:09;6.73;;;4.40;;
21810;SDS011;11067;48.788;9.208;2023-06-14T02:16:36;6.15;;;4.80;;
21810;SDS011;11067;48.788;9.208;2023-06-14T02:19:04;7.47;;;4.77;;
21810;SDS011;11067;48.788;9.208;2023-06-14T02:21:29;6.47;;;4.07;;
21810;SDS011;11067;48.788;9.208;2023-06-14T02:23:55;7.17;;;4.50;;
21810;SDS011;11067;48.788;9.208;2023-06-14T02:26:21;7.07;;;4.45;;
21810;SDS011;11067;48.788;9.208;2023-06-14T02:28:47;8.43;;;4.77;;
21810;SDS011;11067;48.788;9.208;2023-06-14T02:31:13;7.50;;;4.67;;
21810;SDS011;11067;48.788;9.208;2023-06-14T02:33:38;8.98;;;4.82;;
21810;SDS011;11067;48.788;9.208;2023-06-14T02:36:04;7.03;;;4.40;;
21810;SDS011;11067;48.788;9.208;2023-06-14T02:38:30;6.43;;;4.43;;
21810;SDS011;11067;48.788;9.208;2023-06-14T02:40:56;6.90;;;4.65;;
21810;SDS011;11067;48.788;9.208;2023-06-14T02:43:24;6.68;;;4.40;;
21810;SDS011;11067;48.788;9.208;2023-06-14T02:45:49;7.83;;;4.80;;
21810;SDS011;11067;48.788;9.208;2023-06-14T02:48:15;6.35;;;4.32;;
21810;SDS011;11067;48.788;9.208;2023-06-14T02:50:41;6.32;;;4.35;;
21810;SDS011;11067;48.788;9.208;2023-06-14T02:53:07;7.25;;;4.32;;
21810;SDS011;11067;48.788;9.208;2023-06-14T02:55:32;12.43;;;4.72;;
21810;SDS011;11067;48.788;9.208;2023-06-14T02:57:58;8.63;;;4.73;;
21810;SDS011;11067;48.788;9.208;2023-06-14T03:00:24;6.97;;;4.50;;
21810;SDS011;11067;48.788;9.208;2023-06-14T03:02:49;7.05;;;4.63;;
21810;SDS011;11067;48.788;9.208;2023-06-14T03:05:16;7.20;;;4.87;;
21810;SDS011;11067;48.788;9.208;2023-06-14T03:07:46;7.88;;;5.07;;
21810;SDS011;11067;48.788;9.208;2023-06-14T03:10:12;8.15;;;4.78;;
21810;SDS011;11067;48.788;9.208;2023-06-14T03:12:38;8.93;;;5.03;;
21810;SDS011;11067;48.788;9.208;2023-06-14T03:15:04;6.77;;;4.90;;
21810;SDS011;11067;48.788;9.208;2023-06-14T03:17:29;7.97;;;4.63;;
21810;SDS011;11067;48.788;9.208;2023-06-14T03:19:58;9.02;;;4.43;;
21810;SDS011;11067;48.788;9.208;2023-06-14T03:22:24;9.30;;;5.00;;
21810;SDS011;11067;48.788;9.208;2023-06-14T03:24:50;6.30;;;4.80;;
21810;SDS011;11067;48.788;9.208;2023-06-14T03:27:17;8.10;;;5.20;;
21810;SDS011;11067;48.788;9.208;2023-06-14T03:29:43;6.45;;;4.72;;
21810;SDS011;11067;48.788;9.208;2023-06-14T03:32:09;6.60;;;4.13;;
21810;SDS011;11067;48.788;9.208;2023-06-14T03:34:34;7.90;;;4.20;;
21810;SDS011;11067;48.788;9.208;2023-06-14T03:37:00;8.60;;;4.90;;
21810;SDS011;11067;48.788;9.208;2023-06-14T03:39:26;9.25;;;4.63;;
21810;SDS011;11067;48.788;9.208;2023-06-14T03:41:51;6.23;;;4.70;;
21810;SDS011;11067;48.788;9.208;2023-06-14T03:44:18;6.27;;;4.63;;
21810;SDS011;11067;48.788;9.208;2023-06-14T03:46:44;7.13;;;4.60;;
21810;SDS011;11067;48.788;9.208;2023-06-14T03:49:10;8.55;;;4.93;;
21810;SDS011;11067;48.788;9.208;2023-06-14T03:51:36;7.73;;;4.60;;
21810;SDS011;11067;48.788;9.208;2023-06-14T03:54:02;7.27;;;4.80;;
21810;SDS011;11067;48.788;9.208;2023-06-14T03:56:27;5.63;;;4.50;;
21810;SDS011;11067;48.788;9.208;2023-06-14T03:58:53;8.70;;;5.00;;
21810;SDS011;11067;48.788;9.208;2023-06-14T04:01:18;9.43;;;4.83;;
21810;SDS011;11067;48.788;9.208;2023-06-14T04:03:44;8.25;;;4.75;;
21810;SDS011;11067;48.788;9.208;2023-06-14T04:06:09;7.80;;;4.77;;
21810;SDS011;11067;48.788;9.208;2023-06-14T04:08:35;8.37;;;5.20;;
21810;SDS011;11067;48.788;9.208;2023-06-14T04:11:01;7.28;;;5.18;;
21810;SDS011;11067;48.788;9.208;2023-06-14T04:13:27;7.57;;;5.55;;
21810;SDS011;11067;48.788;9.208;2023-06-14T04:15:52;10.32;;;6.07;;
21810;SDS011;11067;48.788;9.208;2023-06-14T04:18:18;9.77;;;5.60;;
21810;SDS011;11067;48.788;9.208;2023-06-14T04:20:45;9.38;;;5.57;;
21810;SDS011;11067;48.788;9.208;2023-06-14T04:23:14;11.80;;;5.87;;
21810;SDS011;11067;48.788;9.208;2023-06-14T04:25:46;9.57;;;5.38;;
21810;SDS011;11067;48.788;9.208;2023-06-14T04:28:12;9.60;;;5.30;;
21810;SDS011;11067;48.788;9.208;2023-06-14T04:30:41;6.82;;;4.85;;
21810;SDS011;11067;48.788;9.208;2023-06-14T04:33:07;8.90;;;5.57;;
21810;SDS011;11067;48.788;9.208;2023-06-14T04:35:34;8.37;;;5.43;;
21810;SDS011;11067;48.788;9.208;2023-06-14T04:38:02;7.68;;;5.10;;
21810;SDS011;11067;48.788;9.208;2023-06-14T04:40:30;11.07;;;5.15;;
21810;SDS011;11067;48.788;9.208;2023-06-14T04:42:56;9.00;;;5.00;;
21810;SDS011;11067;48.788;9.208;2023-06-14T04:45:22;9.63;;;5.70;;
21810;SDS011;11067;48.788;9.208;2023-06-14T04:47:48;9.63;;;6.00;;
21810;SDS011;11067;48.788;9.208;2023-06-14T04:50:15;7.65;;;5.28;;
21810;SDS011;11067;48.788;9.208;2023-06-14T04:52:43;11.20;;;5.25;;
21810;SDS011;11067;48.788;9.208;2023-06-14T04:55:08;14.55;;;5.85;;
21810;SDS011;11067;48.788;9.208;2023-06-14T04:57:34;7.80;;;5.07;;
21810;SDS011;11067;48.788;9.208;2023-06-14T05:00:00;10.07;;;4.80;;
21810;SDS011;11067;48.788;9.208;2023-06-14T05:02:29;13.43;;;6.88;;
21810;SDS011;11067;48.788;9.208;2023-06-14T05:04:55;11.23;;;4.93;;
21810;SDS011;11067;48.788;9.208;2023-06-14T05:07:22;8.75;;;5.07;;
21810;SDS011;11067;48.788;9.208;2023-06-14T05:09:49;8.43;;;4.83;;
21810;SDS011;11067;48.788;9.208;2023-06-14T05:12:14;8.02;;;4.93;;
21810;SDS011;11067;48.788;9.208;2023-06-14T05:14:43;8.70;;;4.60;;
21810;SDS011;11067;48.788;9.208;2023-06-14T05:17:09;8.18;;;4.63;;
21810;SDS011;11067;48.788;9.208;2023-06-14T05:19:35;10.20;;;5.60;;
21810;SDS011;11067;48.788;9.208;2023-06-14T05:22:00;7.77;;;4.97;;
21810;SDS011;11067;48.788;9.208;2023-06-14T05:24:27;7.00;;;5.05;;
21810;SDS011;11067;48.788;9.208;2023-06-14T05:26:55;7.25;;;5.28;;
21810;SDS011;11067;48.788;9.208;2023-06-14T05:29:21;10.73;;;5.25;;
21810;SDS011;11067;48.788;9.208;2023-06-14T05:31:47;13.83;;;5.57;;
21810;SDS011;11067;48.788;9.208;2023-06-14T05:34:12;9.18;;;5.50;;
21810;SDS011;11067;48.788;9.208;2023-06-14T05:36:38;10.60;;;5.10;;
21810;SDS011;11067;48.788;9.208;2023-06-14T05:39:04;6.00;;;4.57;;
21810;SDS011;11067;48.788;9.208;2023-06-14T05:41:30;9.27;;;5.00;;
21810;SDS011;11067;48.788;9.208;2023-06-14T05:43:56;10.05;;;5.28;;
21810;SDS011;11067;48.788;9.208;2023-06-14T05:46:23;8.27;;;4.90;;
21810;SDS011;11067;48.788;9.208;2023-06-14T05:48:52;7.88;;;4.35;;
21810;SDS011;11067;48.788;9.208;2023-06-14T05:51:18;8.23;;;5.32;;
21810;SDS011;11067;48.788;9.208;2023-06-14T05:53:53;9.32;;;5.00;;
21810;SDS011;11067;48.788;9.208;2023-06-14T05:56:19;7.28;;;4.78;;
21810;SDS011;11067;48.788;9.208;2023-06-14T05:58:45;7.80;;;4.80;;
21810;SDS011;11067;48.788;9.208;2023-06-14T06:01:11;8.90;;;5.72;;
21810;SDS011;11067;48.788;9.208;2023-06-14T06:03:38;8.07;;;4.43;;
21810;SDS011;11067;48.788;9.208;2023-06-14T06:06:03;35.60;;;9.77;;
21810;SDS011;11067;48.788;9.208;2023-06-14T06:08:29;10.20;;;4.77;;
21810;SDS011;11067;48.788;9.208;2023-06-14T06:10:56;6.72;;;4.68;;
21810;SDS011;11067;48.788;9.208;2023-06-14T06:13:22;9.73;;;4.73;;
21810;SDS011;11067;48.788;9.208;2023-06-14T06:15:47;6.90;;;4.80;;
21810;SDS011;11067;48.788;9.208;2023-06-14T06:18:13;7.28;;;4.88;;
21810;SDS011;11067;48.788;9.208;2023-06-14T06:20:39;8.43;;;4.87;;
21810;SDS011;11067;48.788;9.208;2023-06-14T06:23:05;9.25;;;4.55;;
21810;SDS011;11067;48.788;9.208;2023-06-14T06:25:30;10.93;;;4.93;;
21810;SDS011;11067;48.788;9.208;2023-06-14T06:28:01;14.32;;;5.25;;
21810;SDS011;11067;48.788;9.208;2023-06-14T06:30:26;8.52;;;4.82;;
21810;SDS011;11067;48.788;9.208;2023-06-14T06:32:52;8.00;;;4.97;;
21810;SDS011;11067;48.788;9.208;2023-06-14T06:35:18;6.95;;;4.75;;
21810;SDS011;11067;48.788;9.208;2023-06-14T06:37:44;4.07;;;3.55;;
21810;SDS011;11067;48.788;9.208;2023-06-14T06:40:10;6.60;;;4.30;;
21810;SDS011;11067;48.788;9.208;2023-06-14T06:42:36;10.38;;;4.60;;
21810;SDS011;11067;48.788;9.208;2023-06-14T06:45:02;6.78;;;4.43;;
21810;SDS011;11067;48.788;9.208;2023-06-14T06:47:28;5.93;;;4.35;;
21810;SDS011;11067;48.788;9.208;2023-06-14T06:49:54;4.63;;;4.07;;
21810;SDS011;11067;48.788;9.208;2023-06-14T06:52:20;5.37;;;4.30;;
21810;SDS011;11067;48.788;9.208;2023-06-14T06:54:46;5.75;;;4.30;;
21810;SDS011;11067;48.788;9.208;2023-06-14T06:57:12;5.38;;;4.15;;
21810;SDS011;11067;48.788;9.208;2023-06-14T06:59:38;7.35;;;4.55;;
21810;SDS011;11067;48.788;9.208;2023-06-14T07:02:04;5.22;;;3.95;;
21810;SDS011;11067;48.788;9.208;2023-06-14T07:04:30;6.15;;;4.38;;
21810;SDS011;11067;48.788;9.208;2023-06-14T07:06:56;6.47;;;4.43;;
21810;SDS011;11067;48.788;9.208;2023-06-14T07:09:22;6.32;;;4.13;;
21810;SDS011;11067;48.788;9.208;2023-06-14T07:11:49;7.40;;;4.03;;
21810;SDS011;11067;48.788;9.208;2023-06-14T07:14:15;6.07;;;4.10;;
21810;SDS011;11067;48.788;9.208;2023-06-14T07:16:41;9.50;;;4.40;;
21810;SDS011;11067;48.788;9.208;2023-06-14T07:19:08;5.83;;;3.97;;
21810;SDS011;11067;48.788;9.208;2023-06-14T07:21:35;8.17;;;4.67;;
21810;SDS011;11067;48.788;9.208;2023-06-14T07:24:03;6.63;;;4.10;;
21810;SDS011;11067;48.788;9.208;2023-06-14T07:26:29;6.82;;;4.60;;
21810;SDS011;11067;48.788;9.208;2023-06-14T07:28:55;6.20;;;4.23;;
21810;SDS011;11067;48.788;9.208;2023-06-14T07:31:21;5.90;;;4.43;;
21810;SDS011;11067;48.788;9.208;2023-06-14T07:33:47;8.15;;;4.15;;
21810;SDS011;11067;48.788;9.208;2023-06-14T07:36:12;7.27;;;4.53;;
21810;SDS011;11067;48.788;9.208;2023-06-14T07:38:38;7.53;;;4.70;;
21810;SDS011;11067;48.788;9.208;2023-06-14T07:41:05;5.60;;;4.20;;
21810;SDS011;11067;48.788;9.208;2023-06-14T07:43:30;6.28;;;4.68;;
21810;SDS011;11067;48.788;9.208;2023-06-14T07:45:56;5.13;;;4.30;;
21810;SDS011;11067;48.788;9.208;2023-06-14T07:48:22;5.97;;;4.60;;
21810;SDS011;11067;48.788;9.208;2023-06-14T07:50:48;9.10;;;4.68;;
21810;SDS011;11067;48.788;9.208;2023-06-14T07:53:13;7.67;;;4.20;;
21810;SDS011;11067;48.788;9.208;2023-06-14T07:55:39;6.38;;;4.40;;
21810;SDS011;11067;48.788;9.208;2023-06-14T07:58:05;8.03;;;4.53;;
21810;SDS011;11067;48.788;9.208;2023-06-14T08:00:31;9.35;;;4.55;;
21810;SDS011;11067;48.788;9.208;2023-06-14T08:02:57;14.77;;;4.97;;
21810;SDS011;11067;48.788;9.208;2023-06-14T08:05:24;8.88;;;4.60;;
21810;SDS011;11067;48.788;9.208;2023-06-14T08:07:50;10.23;;;4.53;;
21810;SDS011;11067;48.788;9.208;2023-06-14T08:10:16;9.32;;;4.50;;
21810;SDS011;11067;48.788;9.208;2023-06-14T08:12:42;5.55;;;4.38;;
21810;SDS011;11067;48.788;9.208;2023-06-14T08:15:08;5.73;;;4.40;;
21810;SDS011;11067;48.788;9.208;2023-06-14T08:17:34;8.07;;;4.53;;
21810;SDS011;11067;48.788;9.208;2023-06-14T08:19:59;8.07;;;4.95;;
21810;SDS011;11067;48.788;9.208;2023-06-14T08:22:25;14.47;;;8.80;;
21810;SDS011;11067;48.788;9.208;2023-06-14T08:24:53;7.60;;;5.07;;
21810;SDS011;11067;48.788;9.208;2023-06-14T08:27:19;10.32;;;5.60;;
21810;SDS011;11067;48.788;9.208;2023-06-14T08:29:45;7.47;;;4.65;;
21810;SDS011;11067;48.788;9.208;2023-06-14T08:32:11;9.03;;;4.87;;
21810;SDS011;11067;48.788;9.208;2023-06-14T08:34:37;5.87;;;4.47;;
21810;SDS011;11067;48.788;9.208;2023-06-14T08:37:03;8.83;;;5.20;;
21810;SDS011;11067;48.788;9.208;2023-06-14T08:39:28;6.88;;;4.43;;
21810;SDS011;11067;48.788;9.208;2023-06-14T08:41:54;8.88;;;4.55;;
21810;SDS011;11067;48.788;9.208;2023-06-14T08:44:21;6.57;;;4.65;;
21810;SDS011;11067;48.788;9.208;2023-06-14T08:46:47;13.63;;;5.47;;
21810;SDS011;11067;48.788;9.208;2023-06-14T08:49:13;7.45;;;4.60;;
21810;SDS011;11067;48.788;9.208;2023-06-14T08:51:42;7.57;;;4.22;;
21810;SDS011;11067;48.788;9.208;2023-06-14T08:54:08;7.50;;;4.30;;
21810;SDS011;11067;48.788;9.208;2023-06-14T08:56:37;9.20;;;4.05;;
21810;SDS011;11067;48.788;9.208;2023-06-14T08:59:03;4.10;;;3.70;;
21810;SDS011;11067;48.788;9.208;2023-06-14T09:01:32;6.55;;;4.07;;
21810;SDS011;11067;48.788;9.208;2023-06-14T09:03:59;7.50;;;4.60;;
21810;SDS011;11067;48.788;9.208;2023-06-14T09:06:25;6.55;;;4.45;;
21810;SDS011;11067;48.788;9.208;2023-06-14T09:08:53;11.77;;;5.03;;
21810;SDS011;11067;48.788;9.208;2023-06-14T09:11:19;8.40;;;4.43;;
21810;SDS011;11067;48.788;9.208;2023-06-14T09:13:46;7.07;;;4.38;;
21810;SDS011;11067;48.788;9.208;2023-06-14T09:16:12;7.20;;;4.07;;
21810;SDS011;11067;48.788;9.208;2023-06-14T09:18:42;8.23;;;4.35;;
21810;SDS011;11067;48.788;9.208;2023-06-14T09:21:13;6.50;;;3.58;;
21810;SDS011;11067;48.788;9.208;2023-06-14T09:26:09;8.53;;;4.20;;
21810;SDS011;11067;48.788;9.208;2023-06-14T09:28:35;9.13;;;4.32;;
21810;SDS011;11067;48.788;9.208;2023-06-14T09:31:02;7.68;;;4.75;;
21810;SDS011;11067;48.788;9.208;2023-06-14T09:33:28;6.70;;;4.25;;
21810;SDS011;11067;48.788;9.208;2023-06-14T09:35:54;5.30;;;4.10;;
21810;SDS011;11067;48.788;9.208;2023-06-14T09:38:20;6.60;;;3.90;;
21810;SDS011;11067;48.788;9.208;2023-06-14T09:40:46;6.60;;;3.90;;
21810;SDS011;11067;48.788;9.208;2023-06-14T09:43:12;8.53;;;4.10;;
21810;SDS011;11067;48.788;9.208;2023-06-14T09:45:38;9.02;;;3.90;;
21810;SDS011;11067;48.788;9.208;2023-06-14T09:48:10;6.18;;;3.75;;
21810;SDS011;11067;48.788;9.208;2023-06-14T09:50:37;7.20;;;3.47;;
21810;SDS011;11067;48.788;9.208;2023-06-14T09:53:07;6.13;;;3.75;;
21810;SDS011;11067;48.788;9.208;2023-06-14T09:55:35;7.50;;;3.78;;
21810;SDS011;11067;48.788;9.208;2023-06-14T09:58:04;7.20;;;3.90;;
21810;SDS011;11067;48.788;9.208;2023-06-14T10:00:31;7.60;;;3.65;;
21810;SDS011;11067;48.788;9.208;2023-06-14T10:03:00;7.68;;;3.67;;
21810;SDS011;11067;48.788;9.208;2023-06-14T10:05:31;4.90;;;3.40;;
21810;SDS011;11067;48.788;9.208;2023-06-14T10:08:04;4.72;;;3.10;;
21810;SDS011;11067;48.788;9.208;2023-06-14T10:10:33;4.50;;;3.33;;
21810;SDS011;11067;48.788;9.208;2023-06-14T10:12:58;5.95;;;3.75;;
21810;SDS011;11067;48.788;9.208;2023-06-14T10:15:29;6.27;;;3.57;;
21810;SDS011;11067;48.788;9.208;2023-06-14T10:18:36;7.73;;;3.37;;
21810;SDS011;11067;48.788;9.208;2023-06-14T10:21:25;4.13;;;3.33;;
21810;SDS011;11067;48.788;9.208;2023-06-14T10:24:07;6.13;;;3.63;;
21810;SDS011;11067;48.788;9.208;2023-06-14T10:26:40;5.55;;;3.50;;
21810;SDS011;11067;48.788;9.208;2023-06-14T10:29:19;8.10;;;3.80;;
21810;SDS011;11067;48.788;9.208;2023-06-14T10:31:46;7.13;;;4.10;;
21810;SDS011;11067;48.788;9.208;2023-06-14T10:34:26;5.90;;;3.78;;
21810;SDS011;11067;48.788;9.208;2023-06-14T10:37:02;5.43;;;4.00;;
21810;SDS011;11067;48.788;9.208;2023-06-14T10:39:39;9.23;;;3.80;;
21810;SDS011;11067;48.788;9.208;2023-06-14T10:42:06;4.85;;;3.92;;
21810;SDS011;11067;48.788;9.208;2023-06-14T10:44:33;5.95;;;3.90;;
21810;SDS011;11067;48.788;9.208;2023-06-14T10:47:04;5.55;;;3.83;;
21810;SDS011;11067;48.788;9.208;2023-06-14T10:52:10;8.13;;;4.00;;
21810;SDS011;11067;48.788;9.208;2023-06-14T10:55:00;4.15;;;3.50;;
21810;SDS011;11067;48.788;9.208;2023-06-14T10:57:36;6.63;;;3.90;;
21810;SDS011;11067;48.788;9.208;2023-06-14T11:00:05;9.40;;;3.85;;
21810;SDS011;11067;48.788;9.208;2023-06-14T11:05:25;4.95;;;3.45;;
21810;SDS011;11067;48.788;9.208;2023-06-14T11:08:15;5.00;;;3.75;;
21810;SDS011;11067;48.788;9.208;2023-06-14T11:10:53;5.40;;;3.80;;
21810;SDS011;11067;48.788;9.208;2023-06-14T11:13:23;6.05;;;3.55;;
21810;SDS011;11067;48.788;9.208;2023-06-14T11:15:50;5.28;;;3.55;;
21810;SDS011;11067;48.788;9.208;2023-06-14T11:18:18;5.63;;;3.80;;
21810;SDS011;11067;48.788;9.208;2023-06-14T11:20:49;6.50;;;3.75;;
21810;SDS011;11067;48.788;9.208;2023-06-14T11:23:14;5.47;;;3.37;;
21810;SDS011;11067;48.788;9.208;2023-06-14T11:25:40;5.18;;;3.15;;
21810;SDS011;11067;48.788;9.208;2023-06-14T11:28:06;4.53;;;3.50;;
21810;SDS011;11067;48.788;9.208;2023-06-14T11:30:32;4.00;;;3.27;;
21810;SDS011;11067;48.788;9.208;2023-06-14T11:32:58;4.20;;;3.60;;
21810;SDS011;11067;48.788;9.208;2023-06-14T11:35:24;4.55;;;3.20;;
21810;SDS011;11067;48.788;9.208;2023-06-14T11:37:54;4.90;;;3.70;;
21810;SDS011;11067;48.788;9.208;2023-06-14T11:40:23;5.20;;;3.37;;
21810;SDS011;11067;48.788;9.208;2023-06-14T11:42:49;4.85;;;3.50;;
21810;SDS011;11067;48.788;9.208;2023-06-14T11:45:22;4.18;;;3.50;;
21810;SDS011;11067;48.788;9.208;2023-06-14T11:47:48;4.37;;;3.47;;
21810;SDS011;11067;48.788;9.208;2023-06-14T11:50:13;5.00;;;3.45;;
21810;SDS011;11067;48.788;9.208;2023-06-14T11:52:39;5.83;;;3.50;;
21810;SDS011;11067;48.788;9.208;2023-06-14T11:55:05;6.18;;;3.90;;
21810;SDS011;11067;48.788;9.208;2023-06-14T11:57:34;9.20;;;3.90;;
21810;SDS011;11067;48.788;9.208;2023-06-14T12:00:03;7.27;;;3.47;;
21810;SDS011;11067;48.788;9.208;2023-06-14T12:02:40;4.57;;;3.28;;
21810;SDS011;11067;48.788;9.208;2023-06-14T12:05:06;5.47;;;3.33;;
21810;SDS011;11067;48.788;9.208;2023-06-14T12:07:38;13.47;;;4.97;;
21810;SDS011;11067;48.788;9.208;2023-06-14T12:10:05;5.53;;;3.78;;
21810;SDS011;11067;48.788;9.208;2023-06-14T12:12:38;4.38;;;3.40;;
21810;SDS011;11067;48.788;9.208;2023-06-14T12:15:05;4.20;;;3.20;;
21810;SDS011;11067;48.788;9.208;2023-06-14T12:17:36;4.68;;;3.30;;
21810;SDS011;11067;48.788;9.208;2023-06-14T12:20:08;5.40;;;3.43;;
21810;SDS011;11067;48.788;9.208;2023-06-14T12:22:36;7.20;;;4.00;;
21810;SDS011;11067;48.788;9.208;2023-06-14T12:25:02;5.67;;;3.43;;
21810;SDS011;11067;48.788;9.208;2023-06-14T12:27:28;4.33;;;3.40;;
21810;SDS011;11067;48.788;9.208;2023-06-14T12:30:01;4.43;;;3.30;;
21810;SDS011;11067;48.788;9.208;2023-06-14T12:32:28;5.40;;;3.42;;
21810;SDS011;11067;48.788;9.208;2023-06-14T12:34:54;9.13;;;3.50;;
21810;SDS011;11067;48.788;9.208;2023-06-14T12:37:20;7.77;;;4.03;;
21810;SDS011;11067;48.788;9.208;2023-06-14T12:39:46;6.10;;;3.40;;
21810;SDS011;11067;48.788;9.208;2023-06-14T12:42:12;3.80;;;3.10;;
21810;SDS011;11067;48.788;9.208;2023-06-14T12:44:39;4.78;;;3.13;;
21810;SDS011;11067;48.788;9.208;2023-06-14T12:47:06;5.13;;;3.20;;
21810;SDS011;11067;48.788;9.208;2023-06-14T12:49:32;5.60;;;3.28;;
21810;SDS011;11067;48.788;9.208;2023-06-14T12:51:58;6.13;;;3.50;;
21810;SDS011;11067;48.788;9.208;2023-06-14T12:54:24;5.50;;;3.55;;
21810;SDS011;11067;48.788;9.208;2023-06-14T12:56:51;5.13;;;3.42;;
21810;SDS011;11067;48.788;9.208;2023-06-14T12:59:18;8.13;;;3.80;;
21810;SDS011;11067;48.788;9.208;2023-06-14T13:01:44;5.50;;;3.60;;
21810;SDS011;11067;48.788;9.208;2023-06-14T13:04:10;4.35;;;3.50;;
21810;SDS011;11067;48.788;9.208;2023-06-14T13:06:36;5.72;;;3.20;;
21810;SDS011;11067;48.788;9.208;2023-06-14T13:09:02;4.70;;;3.60;;
21810;SDS011;11067;48.788;9.208;2023-06-14T13:11:29;6.47;;;3.70;;
21810;SDS011;11067;48.788;9.208;2023-06-14T13:13:55;6.35;;;3.40;;
21810;SDS011;11067;48.788;9.208;2023-06-14T13:16:21;5.67;;;3.10;;
21810;SDS011;11067;48.788;9.208;2023-06-14T13:18:47;5.53;;;3.20;;
21810;SDS011;11067;48.788;9.208;2023-06-14T13:21:13;5.72;;;3.47;;
21810;SDS011;11067;48.788;9.208;2023-06-14T13:23:39;4.95;;;3.35;;
21810;SDS011;11067;48.788;9.208;2023-06-14T13:26:05;7.07;;;3.60;;
21810;SDS011;11067;48.788;9.208;2023-06-14T13:28:31;25.83;;;6.45;;
21810;SDS011;11067;48.788;9.208;2023-06-14T13:30:57;5.60;;;3.53;;
21810;SDS011;11067;48.788;9.208;2023-06-14T13:33:23;4.63;;;3.50;;
21810;SDS011;11067;48.788;9.208;2023-06-14T13:35:49;4.47;;;3.63;;
21810;SDS011;11067;48.788;9.208;2023-06-14T13:38:17;6.30;;;4.00;;
21810;SDS011;11067;48.788;9.208;2023-06-14T13:40:43;5.75;;;3.75;;
21810;SDS011;11067;48.788;9.208;2023-06-14T13:43:09;3.83;;;3.45;;
21810;SDS011;11067;48.788;9.208;2023-06-14T13:45:36;5.78;;;3.45;;
21810;SDS011;11067;48.788;9.208;2023-06-14T13:48:02;5.55;;;3.97;;
21810;SDS011;11067;48.788;9.208;2023-06-14T13:50:27;5.28;;;3.75;;
21810;SDS011;11067;48.788;9.208;2023-06-14T13:52:53;5.05;;;3.58;;
21810;SDS011;11067;48.788;9.208;2023-06-14T13:55:19;5.17;;;3.20;;
21810;SDS011;11067;48.788;9.208;2023-06-14T13:57:46;4.45;;;3.22;;
21810;SDS011;11067;48.788;9.208;2023-06-14T14:00:12;6.82;;;4.03;;
21810;SDS011;11067;48.788;9.208;2023-06-14T14:02:38;5.30;;;3.75;;
21810;SDS011;11067;48.788;9.208;2023-06-14T14:05:08;6.05;;;3.60;;
21810;SDS011;11067;48.788;9.208;2023-06-14T14:07:34;4.13;;;3.70;;
21810;SDS011;11067;48.788;9.208;2023-06-14T14:10:01;3.92;;;3.50;;
21810;SDS011;11067;48.788;9.208;2023-06-14T14:12:27;4.10;;;3.70;;
21810;SDS011;11067;48.788;9.208;2023-06-14T14:14:53;4.65;;;3.38;;
21810;SDS011;11067;48.788;9.208;2023-06-14T14:17:19;6.53;;;3.58;;
21810;SDS011;11067;48.788;9.208;2023-06-14T14:19:45;7.90;;;3.53;;
21810;SDS011;11067;48.788;9.208;2023-06-14T14:22:11;5.37;;;3.60;;
21810;SDS011;11067;48.788;9.208;2023-06-14T14:24:37;5.45;;;3.50;;
21810;SDS011;11067;48.788;9.208;2023-06-14T14:27:03;5.25;;;3.60;;
21810;SDS011;11067;48.788;9.208;2023-06-14T14:29:30;4.65;;;3.28;;
21810;SDS011;11067;48.788;9.208;2023-06-14T14:31:56;8.10;;;3.60;;
21810;SDS011;11067;48.788;9.208;2023-06-14T14:34:23;5.90;;;3.70;;
21810;SDS011;11067;48.788;9.208;2023-06-14T14:36:49;5.70;;;3.93;;
21810;SDS011;11067;48.788;9.208;2023-06-14T14:39:16;8.30;;;4.00;;
21810;SDS011;11067;48.788;9.208;2023-06-14T14:41:41;6.25;;;4.00;;
21810;SDS011;11067;48.788;9.208;2023-06-14T14:44:07;5.15;;;3.70;;
21810;SDS011;11067;48.788;9.208;2023-06-14T14:46:33;5.07;;;3.50;;
21810;SDS011;11067;48.788;9.208;2023-06-14T14:49:00;4.65;;;3.40;;
21810;SDS011;11067;48.788;9.208;2023-06-14T14:51:26;5.93;;;3.45;;
21810;SDS011;11067;48.788;9.208;2023-06-14T14:53:52;6.65;;;3.50;;
21810;SDS011;11067;48.788;9.208;2023-06-14T14:56:18;6.63;;;4.07;;